KMIE/MIE METAR and TAF weather

Enter ICAO airport designator
Station Type Date Time Source
KMIE METAR 2020/11/27 14:53 UTC NOAA

KMIE 271453Z 25008KT 10SM OVC022 08/03 A3012 RMK AO2 SLP200 T00830028 50005


Station Type Date Time Source
KMIE Decoded METAR 2020/11/27 14:53 UTC NOAA

MUNCIE DELAWARE JOHNSON, IN, United States (KMIE) 40-14N 85-24W 285M
Nov 27, 2020 - 09:53 AM EST / 2020.11.27 1453 UTC
Wind: from the WSW (250 degrees) at 9 MPH (8 KT):0
Visibility: 10 mile(s):0
Sky conditions: overcast
Temperature: 46.9 F (8.3 C)
Dew Point: 37.0 F (2.8 C)
Relative Humidity: 68%
Pressure (altimeter): 30.12 in. Hg (1019 hPa)
Pressure tendency: 0.01 inches (0.5 hPa) higher than three hours ago
ob: KMIE 271453Z 25008KT 10SM OVC022 08/03 A3012 RMK AO2 SLP200 T00830028 50005
cycle: 15

Station Type Date Time Source
KMIE TAF UTC NOAA

Error!

Example: see airport list